createdAt,value
2023-02-19T00:01:49.066Z,95.64
2023-02-19T00:04:21.765Z,95.60
2023-02-19T00:06:49.069Z,95.50
2023-02-19T00:09:17.059Z,95.60
2023-02-19T00:11:43.800Z,95.94
2023-02-19T00:14:11.470Z,96.04
2023-02-19T00:16:39.465Z,95.91
2023-02-19T00:19:08.245Z,96.20
2023-02-19T00:21:34.776Z,96.47
2023-02-19T00:24:03.641Z,96.36
2023-02-19T00:26:30.619Z,96.53
2023-02-19T00:28:58.318Z,96.67
2023-02-19T00:31:25.820Z,96.67
2023-02-19T00:33:54.507Z,96.75
2023-02-19T00:36:21.615Z,96.57
2023-02-19T00:38:48.796Z,96.60
2023-02-19T00:41:19.658Z,96.15
2023-02-19T00:43:55.187Z,96.33
2023-02-19T00:46:24.239Z,96.42
2023-02-19T00:48:52.612Z,96.34
2023-02-19T00:51:20.172Z,96.20
2023-02-19T00:53:46.620Z,96.31
2023-02-19T00:56:13.191Z,96.22
2023-02-19T00:58:39.783Z,96.04
2023-02-19T01:01:06.727Z,95.91
2023-02-19T01:03:34.169Z,96.27
2023-02-19T01:06:01.179Z,96.19
2023-02-19T01:08:28.234Z,96.09
2023-02-19T01:10:54.689Z,96.21
2023-02-19T01:13:21.243Z,96.17
2023-02-19T01:15:47.723Z,96.08
2023-02-19T01:18:14.203Z,95.80
2023-02-19T01:20:42.683Z,95.74
2023-02-19T01:23:11.258Z,95.65
2023-02-19T01:25:42.667Z,95.24
2023-02-19T01:28:10.484Z,95.58
2023-02-19T01:30:38.131Z,95.49
2023-02-19T01:33:08.391Z,95.29
2023-02-19T01:35:38.556Z,95.13
2023-02-19T01:38:05.131Z,95.09
2023-02-19T01:40:31.566Z,95.63
2023-02-19T01:42:57.998Z,95.67
2023-02-19T01:45:35.103Z,95.61
2023-02-19T01:48:09.416Z,95.55
2023-02-19T01:50:44.590Z,95.39
2023-02-19T01:53:12.361Z,95.29
2023-02-19T01:55:39.137Z,95.43
2023-02-19T01:58:05.996Z,95.25
2023-02-19T02:00:33.659Z,95.47
2023-02-19T02:03:00.766Z,95.09
2023-02-19T02:05:38.347Z,95.64
2023-02-19T02:08:23.579Z,95.74
2023-02-19T02:10:50.516Z,95.43
2023-02-19T02:13:17.337Z,95.35
2023-02-19T02:15:56.774Z,95.68
2023-02-19T02:18:29.547Z,95.71
2023-02-19T02:21:33.703Z,95.85
2023-02-19T02:24:05.530Z,96.35
2023-02-19T02:27:12.641Z,95.96
2023-02-19T02:30:05.555Z,95.83
2023-02-19T02:32:58.370Z,95.96
2023-02-19T02:35:28.517Z,95.52
2023-02-19T02:37:58.640Z,95.54
2023-02-19T02:40:25.482Z,95.42
2023-02-19T02:42:51.980Z,95.09
2023-02-19T02:45:36.878Z,95.04
2023-02-19T02:48:37.092Z,94.73
2023-02-19T02:51:10.093Z,95.02
2023-02-19T02:54:04.577Z,94.82
2023-02-19T02:56:31.203Z,94.84
2023-02-19T02:58:58.962Z,94.60
2023-02-19T03:01:48.542Z,94.57
2023-02-19T03:04:22.569Z,94.21
2023-02-19T03:06:49.807Z,94.30
2023-02-19T03:09:22.520Z,94.06
2023-02-19T03:12:08.666Z,94.37
2023-02-19T03:15:00.890Z,94.04
2023-02-19T03:18:08.238Z,94.09
2023-02-19T03:20:37.261Z,94.10
2023-02-19T03:23:05.257Z,94.22
2023-02-19T03:25:51.160Z,94.23
2023-02-19T03:28:20.123Z,93.83
2023-02-19T03:30:52.547Z,93.77
2023-02-19T03:33:22.739Z,93.56
2023-02-19T03:35:58.734Z,93.75
2023-02-19T03:38:30.121Z,93.37
2023-02-19T03:41:04.259Z,93.31
2023-02-19T03:43:54.016Z,93.91
2023-02-19T03:46:25.903Z,93.98
2023-02-19T03:48:57.225Z,94.14
2023-02-19T03:51:42.082Z,93.93
2023-02-19T03:54:29.264Z,94.02
2023-02-19T03:57:03.766Z,93.74
2023-02-19T03:59:32.808Z,93.79
2023-02-19T04:02:06.659Z,93.79
2023-02-19T04:04:39.363Z,93.90
2023-02-19T04:07:06.026Z,94.21
2023-02-19T04:09:41.852Z,94.30
2023-02-19T04:12:08.934Z,94.54
2023-02-19T04:14:47.564Z,94.38
2023-02-19T04:17:19.680Z,94.51
2023-02-19T04:19:48.489Z,94.75
2023-02-19T04:22:16.163Z,94.75
2023-02-19T04:24:48.306Z,94.88
2023-02-19T04:27:14.874Z,94.65
2023-02-19T04:29:41.466Z,94.65
2023-02-19T04:32:10.814Z,94.44
2023-02-19T04:34:37.314Z,94.71
2023-02-19T04:37:03.867Z,94.41
2023-02-19T04:39:30.455Z,94.57
2023-02-19T04:41:56.932Z,94.62
2023-02-19T04:44:23.442Z,94.20
2023-02-19T04:46:50.069Z,94.26
2023-02-19T04:49:16.549Z,94.44
2023-02-19T04:51:42.942Z,93.59
2023-02-19T04:54:09.501Z,94.12
2023-02-19T04:56:36.002Z,94.08
2023-02-19T04:59:02.632Z,93.90
2023-02-19T05:01:29.128Z,94.24
2023-02-19T05:03:55.598Z,94.23
2023-02-19T05:06:22.052Z,94.27
2023-02-19T05:08:48.686Z,94.09
2023-02-19T05:11:15.221Z,94.19
2023-02-19T05:13:42.727Z,94.41
2023-02-19T05:16:15.901Z,93.75
2023-02-19T05:18:43.338Z,94.12
2023-02-19T05:21:11.444Z,94.09
2023-02-19T05:23:38.769Z,94.01
2023-02-19T05:26:07.224Z,94.09
2023-02-19T05:28:33.956Z,94.08
2023-02-19T05:31:05.115Z,94.10
2023-02-19T05:33:31.551Z,93.55
2023-02-19T05:35:58.072Z,94.02
2023-02-19T05:38:24.711Z,93.68
2023-02-19T05:40:51.582Z,93.75
2023-02-19T05:43:18.039Z,93.66
2023-02-19T05:45:44.487Z,93.65
2023-02-19T05:48:12.873Z,93.66
2023-02-19T05:50:39.980Z,93.07
2023-02-19T05:53:06.594Z,93.31
2023-02-19T05:55:36.718Z,93.38
2023-02-19T05:58:03.549Z,93.33
2023-02-19T06:00:30.471Z,93.29
2023-02-19T06:02:56.877Z,93.55
2023-02-19T06:05:23.375Z,93.29
2023-02-19T06:07:50.514Z,93.49
2023-02-19T06:10:17.495Z,93.41
2023-02-19T06:12:44.067Z,93.40
2023-02-19T06:15:10.702Z,93.42
2023-02-19T06:17:37.200Z,93.71
2023-02-19T06:20:03.862Z,93.74
2023-02-19T06:22:31.410Z,94.00
2023-02-19T06:24:58.090Z,94.32
2023-02-19T06:27:24.525Z,94.05
2023-02-19T06:29:50.988Z,93.95
2023-02-19T06:32:17.598Z,94.08
2023-02-19T06:34:44.119Z,94.05
2023-02-19T06:37:10.553Z,93.75
2023-02-19T06:39:37.097Z,93.84
2023-02-19T06:42:03.717Z,94.17
2023-02-19T06:44:30.172Z,93.70
2023-02-19T06:46:56.684Z,94.07
2023-02-19T06:49:23.175Z,94.28
2023-02-19T06:51:49.621Z,93.89
2023-02-19T06:54:16.051Z,93.49
2023-02-19T06:56:46.085Z,93.56
2023-02-19T06:59:16.934Z,93.68
2023-02-19T07:01:43.910Z,93.87
2023-02-19T07:04:10.407Z,93.61
2023-02-19T07:06:38.810Z,93.81
2023-02-19T07:09:06.887Z,93.13
2023-02-19T07:11:34.832Z,93.16
2023-02-19T07:14:03.537Z,92.96
2023-02-19T07:16:30.410Z,93.01
2023-02-19T07:18:57.985Z,93.19
2023-02-19T07:21:24.484Z,93.29
2023-02-19T07:23:51.014Z,93.10
2023-02-19T07:26:19.776Z,92.89
2023-02-19T07:28:48.233Z,92.86
2023-02-19T07:31:17.583Z,92.74
2023-02-19T07:33:45.187Z,92.90
2023-02-19T07:36:12.123Z,92.64
2023-02-19T07:38:38.623Z,92.70
2023-02-19T07:41:05.760Z,92.47
2023-02-19T07:43:34.708Z,92.32
2023-02-19T07:46:09.845Z,92.46
2023-02-19T07:48:37.319Z,92.88
2023-02-19T07:51:05.466Z,92.71
2023-02-19T07:53:33.572Z,93.06
2023-02-19T07:56:04.386Z,92.83
2023-02-19T07:58:31.616Z,92.73
2023-02-19T08:00:58.395Z,92.35
2023-02-19T08:03:24.948Z,92.16
2023-02-19T08:05:53.806Z,91.95
2023-02-19T08:08:20.339Z,92.66
2023-02-19T08:11:05.511Z,92.83
2023-02-19T08:13:32.200Z,92.92
2023-02-19T08:16:15.957Z,92.97
2023-02-19T08:18:44.530Z,92.87
2023-02-19T08:21:11.626Z,92.89
2023-02-19T08:23:38.561Z,93.00
2023-02-19T08:26:05.550Z,93.10
2023-02-19T08:28:32.409Z,93.07
2023-02-19T08:31:01.593Z,93.11
2023-02-19T08:33:28.236Z,92.63
2023-02-19T08:35:55.111Z,93.03
2023-02-19T08:38:21.759Z,93.27
2023-02-19T08:40:48.243Z,93.17
2023-02-19T08:43:16.986Z,93.14
2023-02-19T08:45:45.137Z,93.39
2023-02-19T08:48:11.982Z,93.15
2023-02-19T08:50:38.696Z,93.08
2023-02-19T08:53:06.231Z,93.08
2023-02-19T08:55:33.280Z,93.09
2023-02-19T08:58:04.117Z,92.97
2023-02-19T09:00:30.550Z,93.22
2023-02-19T09:02:58.232Z,92.87
2023-02-19T09:05:24.775Z,92.88
2023-02-19T09:07:51.233Z,92.24
2023-02-19T09:10:17.683Z,92.39
2023-02-19T09:12:44.098Z,92.63
2023-02-19T09:15:10.593Z,92.33
2023-02-19T09:17:37.062Z,91.98
2023-02-19T09:20:04.153Z,91.91
2023-02-19T09:22:30.701Z,92.14
2023-02-19T09:24:57.105Z,91.78
2023-02-19T09:27:23.519Z,91.42
2023-02-19T09:29:49.948Z,91.29
2023-02-19T09:32:19.140Z,91.56
2023-02-19T09:34:45.832Z,91.44
2023-02-19T09:37:12.311Z,91.76
2023-02-19T09:39:39.846Z,91.34
2023-02-19T09:42:15.908Z,90.10
2023-02-19T09:44:44.713Z,90.02
2023-02-19T09:47:19.937Z,89.65
2023-02-19T09:49:52.140Z,90.27
2023-02-19T09:52:41.512Z,90.00
2023-02-19T09:55:31.660Z,90.34
2023-02-19T09:57:59.503Z,90.47
2023-02-19T10:00:28.032Z,90.83
2023-02-19T10:03:05.855Z,90.38
2023-02-19T10:05:33.563Z,90.04
2023-02-19T10:08:00.425Z,90.09
2023-02-19T10:10:30.305Z,90.41
2023-02-19T10:13:10.282Z,90.18
2023-02-19T10:15:46.277Z,90.58
2023-02-19T10:18:12.900Z,91.24
2023-02-19T10:20:40.265Z,90.97
2023-02-19T10:23:08.144Z,90.35
2023-02-19T10:25:42.545Z,90.34
2023-02-19T10:28:22.164Z,90.60
2023-02-19T10:30:54.423Z,90.26
2023-02-19T10:33:22.132Z,90.00
2023-02-19T10:36:06.694Z,89.55
2023-02-19T10:38:39.447Z,89.64
2023-02-19T10:41:17.692Z,89.56
2023-02-19T10:43:57.420Z,89.71
2023-02-19T10:46:33.582Z,89.88
2023-02-19T10:49:20.175Z,90.02
2023-02-19T10:51:47.990Z,90.29
2023-02-19T10:54:20.932Z,90.16
2023-02-19T10:56:47.488Z,89.86
2023-02-19T10:59:28.645Z,89.69
2023-02-19T11:01:58.210Z,89.74
2023-02-19T11:04:26.623Z,89.66
2023-02-19T11:06:53.247Z,89.59
2023-02-19T11:09:22.628Z,89.87
2023-02-19T11:11:54.381Z,89.95
2023-02-19T11:14:24.186Z,89.48
2023-02-19T11:16:53.356Z,89.53
2023-02-19T11:19:48.585Z,89.25
2023-02-19T11:22:35.745Z,89.62
2023-02-19T11:25:07.315Z,89.60
2023-02-19T11:27:33.796Z,89.46
2023-02-19T11:30:33.973Z,89.43
2023-02-19T11:33:20.274Z,89.50
2023-02-19T11:35:48.198Z,89.40
2023-02-19T11:38:17.079Z,89.21
2023-02-19T11:41:03.221Z,88.63
2023-02-19T11:44:12.241Z,88.04
2023-02-19T11:46:50.856Z,88.26
2023-02-19T11:49:27.038Z,89.05
2023-02-19T11:52:12.232Z,89.56
2023-02-19T11:54:49.250Z,89.88
2023-02-19T11:57:38.544Z,88.76
2023-02-19T12:00:27.911Z,88.81
2023-02-19T12:03:17.896Z,89.10
2023-02-19T12:06:00.086Z,89.62
2023-02-19T12:09:02.921Z,88.80
2023-02-19T12:11:40.437Z,88.92
2023-02-19T12:14:39.792Z,88.54
2023-02-19T12:17:33.965Z,88.58
2023-02-19T12:20:14.076Z,88.65
2023-02-19T12:22:50.105Z,88.68
2023-02-19T12:25:25.379Z,89.10
2023-02-19T12:28:01.389Z,89.15
2023-02-19T12:30:46.669Z,89.16
2023-02-19T12:33:19.182Z,89.36
2023-02-19T12:36:20.894Z,89.45
2023-02-19T12:39:09.034Z,89.48
2023-02-19T12:41:49.896Z,89.28
2023-02-19T12:44:56.129Z,88.82
2023-02-19T12:58:05.854Z,87.70
2023-02-19T13:00:58.912Z,87.65
2023-02-19T14:51:42.354Z,76.18
2023-02-19T14:54:16.555Z,76.36
2023-02-19T14:56:45.304Z,76.90
2023-02-19T14:59:11.647Z,77.28
2023-02-19T15:01:38.829Z,76.85
2023-02-19T15:04:05.738Z,76.24
2023-02-19T15:06:34.450Z,77.20
2023-02-19T15:09:05.406Z,75.64
2023-02-19T15:11:32.520Z,76.71
2023-02-19T15:14:02.210Z,77.57
2023-02-19T15:16:29.689Z,77.41
2023-02-19T15:18:58.175Z,78.29
2023-02-19T15:21:26.507Z,79.00
2023-02-19T15:23:58.561Z,78.37
2023-02-19T15:26:35.879Z,78.77
2023-02-19T15:29:11.087Z,79.20
2023-02-19T15:31:49.501Z,78.83
2023-02-19T15:34:27.347Z,79.29
2023-02-19T15:36:59.040Z,79.54
2023-02-19T15:39:41.922Z,80.27
2023-02-19T15:42:11.036Z,79.96
2023-02-19T15:44:52.214Z,79.56
2023-02-19T15:47:51.791Z,80.66
2023-02-19T15:50:32.044Z,80.54
2023-02-19T15:53:09.131Z,81.04
2023-02-19T15:55:38.545Z,80.66
2023-02-19T15:58:09.199Z,81.49
2023-02-19T16:00:41.040Z,81.17
2023-02-19T16:03:22.954Z,81.43
2023-02-19T16:06:04.759Z,80.90
2023-02-19T16:08:36.514Z,81.44
2023-02-19T16:11:07.253Z,81.87
2023-02-19T16:13:34.714Z,82.88
2023-02-19T16:16:06.706Z,82.67
2023-02-19T16:18:33.468Z,82.53
2023-02-19T16:21:00.435Z,82.82
2023-02-19T16:23:27.327Z,82.89
2023-02-19T16:26:01.695Z,83.06
2023-02-19T16:28:29.710Z,82.86
2023-02-19T16:30:57.464Z,83.53
2023-02-19T16:33:35.665Z,83.29
2023-02-19T16:36:28.811Z,84.26
2023-02-19T16:38:58.927Z,84.37
2023-02-19T16:41:25.295Z,84.57
2023-02-19T16:43:51.711Z,85.00
2023-02-19T16:46:18.335Z,84.96
2023-02-19T16:48:44.816Z,85.04
2023-02-19T16:51:17.429Z,85.13
2023-02-19T16:53:43.861Z,85.92
2023-02-19T16:56:16.269Z,85.86
2023-02-19T16:58:42.754Z,85.31
2023-02-19T17:01:09.767Z,85.69
2023-02-19T17:03:38.101Z,85.18
2023-02-19T17:06:04.943Z,85.59
2023-02-19T17:08:36.941Z,86.09
2023-02-19T17:11:06.716Z,85.25
2023-02-19T17:13:33.306Z,85.03
2023-02-19T17:15:59.809Z,85.51
2023-02-19T17:18:26.328Z,85.00
2023-02-19T17:21:12.537Z,84.75
2023-02-19T17:23:39.136Z,84.02
2023-02-19T17:26:05.536Z,83.94
2023-02-19T17:28:31.968Z,82.78
2023-02-19T17:30:58.416Z,82.54
2023-02-19T17:33:24.865Z,82.29
2023-02-19T17:35:51.424Z,82.03
2023-02-19T17:38:17.862Z,82.05
2023-02-19T17:40:45.191Z,81.68
2023-02-19T17:43:11.591Z,81.45
2023-02-19T17:45:38.421Z,81.72
2023-02-19T17:48:05.071Z,81.67
2023-02-19T17:50:32.013Z,81.83
2023-02-19T17:52:58.854Z,81.48
2023-02-19T17:55:26.595Z,81.65
2023-02-19T17:57:53.383Z,82.00
2023-02-19T18:00:22.835Z,81.15
2023-02-19T18:02:49.365Z,80.91
2023-02-19T18:05:16.151Z,81.45
2023-02-19T18:07:43.404Z,81.11
2023-02-19T18:10:10.493Z,81.21
2023-02-19T18:12:38.213Z,81.02
2023-02-19T18:15:05.226Z,81.25
2023-02-19T18:17:31.668Z,81.70
2023-02-19T18:19:58.081Z,82.06
2023-02-19T18:22:24.735Z,81.86
2023-02-19T18:24:53.250Z,81.37
2023-02-19T18:35:40.692Z,81.74
2023-02-19T18:38:07.144Z,81.27
2023-02-19T18:40:33.750Z,81.07
2023-02-19T18:43:00.292Z,81.46
2023-02-19T18:45:27.535Z,81.49
2023-02-19T18:47:54.174Z,81.80
2023-02-19T18:50:20.620Z,81.52
2023-02-19T18:52:47.150Z,81.33
2023-02-19T18:55:13.673Z,82.00
2023-02-19T18:57:40.106Z,82.18
2023-02-19T19:00:07.566Z,82.38
2023-02-19T19:02:48.272Z,82.54
2023-02-19T19:05:22.670Z,82.62
2023-02-19T19:07:51.026Z,83.18
2023-02-19T19:10:18.134Z,83.15
2023-02-19T19:12:44.660Z,83.41
2023-02-19T19:15:11.239Z,83.82
2023-02-19T19:17:38.709Z,83.64
2023-02-19T19:20:05.763Z,84.24
2023-02-19T19:22:32.158Z,84.59
2023-02-19T19:24:59.930Z,84.49
2023-02-19T19:27:26.355Z,84.33
2023-02-19T19:29:52.813Z,85.08
2023-02-19T19:32:19.410Z,85.04
2023-02-19T19:34:45.887Z,85.49
2023-02-19T19:37:12.415Z,85.50
2023-02-19T19:39:38.814Z,86.11
2023-02-19T19:42:07.785Z,85.93
2023-02-19T19:44:34.245Z,87.32
2023-02-19T19:47:00.680Z,86.82
2023-02-19T19:49:27.107Z,87.21
2023-02-19T19:51:53.490Z,86.55
2023-02-19T19:54:20.986Z,87.75
2023-02-19T19:56:47.786Z,87.37
2023-02-19T19:59:16.025Z,86.62
2023-02-19T20:01:53.634Z,87.48
2023-02-19T20:04:22.572Z,87.77
2023-02-19T20:06:49.461Z,88.10
2023-02-19T20:09:16.733Z,86.99
2023-02-19T20:11:47.708Z,87.55
2023-02-19T20:14:14.635Z,87.65
2023-02-19T20:16:42.671Z,87.67
2023-02-19T20:19:10.411Z,87.58
2023-02-19T20:26:08.819Z,87.92
2023-02-19T20:28:35.273Z,88.21
2023-02-19T20:31:01.748Z,87.68
2023-02-19T20:33:28.242Z,88.18
2023-02-19T20:35:56.683Z,87.71
2023-02-19T20:38:23.235Z,88.47
2023-02-19T20:52:06.739Z,89.04
2023-02-19T20:54:34.404Z,88.60
2023-02-19T20:57:03.312Z,88.49
2023-02-19T21:06:31.967Z,88.97
2023-02-19T21:08:58.608Z,88.92
2023-02-19T21:22:24.154Z,89.63
2023-02-19T21:24:53.000Z,89.73
2023-02-19T21:27:19.992Z,89.58
2023-02-19T21:29:47.508Z,89.49
2023-02-19T21:32:14.174Z,89.97
2023-02-19T21:34:40.704Z,89.71
2023-02-19T21:37:07.214Z,89.72
2023-02-19T21:43:46.232Z,89.90
2023-02-19T21:46:18.111Z,90.11
2023-02-19T21:48:47.818Z,90.99
2023-02-19T21:51:14.476Z,90.78
2023-02-19T21:53:40.853Z,90.93
2023-02-19T21:56:08.410Z,91.09
2023-02-19T21:58:34.958Z,90.69
2023-02-19T22:01:01.655Z,91.26
2023-02-19T22:03:28.256Z,91.39
2023-02-19T22:05:55.021Z,91.72
2023-02-19T22:08:21.420Z,91.21
2023-02-19T22:10:47.829Z,90.88
2023-02-19T22:13:14.207Z,91.19
2023-02-19T22:15:40.633Z,91.06
2023-02-19T22:18:07.036Z,90.55
2023-02-19T22:20:34.612Z,90.51
2023-02-19T22:23:01.014Z,90.27
2023-02-19T22:25:27.395Z,89.87
2023-02-19T22:27:53.830Z,90.13
2023-02-19T22:30:20.619Z,89.93
2023-02-19T22:32:47.144Z,89.45
2023-02-19T22:35:15.670Z,89.37
2023-02-19T22:37:42.250Z,89.20
2023-02-19T22:40:08.950Z,89.04
2023-02-19T22:42:36.094Z,89.22
2023-02-19T22:45:02.703Z,88.80
2023-02-19T22:47:29.131Z,88.84
2023-02-19T22:49:55.518Z,88.57
2023-02-19T22:52:22.062Z,88.51
2023-02-19T22:54:48.438Z,88.19
2023-02-19T22:57:14.870Z,88.23
2023-02-19T22:59:41.267Z,88.43
2023-02-19T23:02:07.657Z,87.86
2023-02-19T23:04:34.284Z,87.91
2023-02-19T23:07:00.940Z,87.85
2023-02-19T23:09:28.680Z,87.58
2023-02-19T23:12:06.335Z,87.33
2023-02-19T23:14:32.827Z,87.25
2023-02-19T23:16:59.403Z,87.02
2023-02-19T23:19:26.386Z,87.07
2023-02-19T23:21:53.239Z,86.59
2023-02-19T23:24:20.143Z,86.43
2023-02-19T23:26:49.226Z,86.17
2023-02-19T23:29:21.034Z,86.00
2023-02-19T23:31:47.637Z,86.17
2023-02-19T23:34:14.640Z,86.08
2023-02-19T23:36:42.299Z,86.06
2023-02-19T23:39:13.541Z,85.54
2023-02-19T23:41:45.922Z,86.02
2023-02-19T23:44:12.334Z,85.43
2023-02-19T23:46:38.794Z,85.67
2023-02-19T23:49:05.255Z,85.68
2023-02-19T23:51:31.709Z,85.50
2023-02-19T23:53:58.178Z,85.80
2023-02-19T23:56:28.953Z,85.79
2023-02-19T23:58:56.025Z,85.84
